Clear Lake, IA

9:37 AM CST on November 26, 2014 (GMT -0600)
Near the High School, Main Avenue | Change Station
CLOSE
Current Station
Personal Weather Station
Location: Clear Lake, IA
Elevation: 1220 ft
Nearby Weather Stations
Active Advisory: Winter Weather Advisory

Elev 1220 ft 43.14 °N, 93.37 °W | Updated 173 days ago

Snow
Snow
25 °F
Feels Like 14 °F
N
12
Wind Variable Wind from NE
Gusts 15 mph

Today
High -- | Low -- °F
--% Chance of Precip.
Yesterday
High -- | Low -- °F
Precip. -- in
7:19 AM 4:41 PM
Waxing Crescent, 20% visible
Pressure 30.01 in
Visibility 1.8 miles
Clouds Overcast 2100 ft
Windchill 14 °F
Dew Point 25 °F
Humidity 97%
Rainfall 0.00 in
Snow Depth Not available.
UV 0 out of 12
Pollen .10 out of 12
Air Quality Not available.
Flu Activity Not available.
SPECI KMCW 261500Z AUTO 11012KT 1 3/4SM -SN OVC021 M03/M06 A3001 RMK AO2 P0000 T10331061

More Conditions Fewer Conditions

Pressure 30.01 in
Visibility 1.8 miles
Clouds Overcast 2100 ft
Windchill 14 °F
Dew Point 25 °F
Humidity 97%
Rainfall 0.00 in
Snow Depth Not available.
UV 0 out of 12
Pollen .10 out of 12
Air Quality Not available.
Flu Activity Not available.
SPECI KMCW 261500Z AUTO 11012KT 1 3/4SM -SN OVC021 M03/M06 A3001 RMK AO2 P0000 T10331061

More Conditions Fewer Conditions

10-Day Weather Forecast

Almanac

Astronomy

Nov. 26, 2014 Rise Set
Actual Time
Civil Twilight
Nautical Twilight
Astronomical Twilight
Moon
Length of Visible Light
Length of Day
Tomorrow will be .
, % of the Moon is Illuminated

Today's Extremes

State Highs State Lows

Community

WunderPhotos

Upload Photos

1,773,772 photos uploaded!

WunderBlogs® & News

Nearby

Air Quality

  Air Quality AQ Index Pollutant
Not available.

Snow Depth

Station Depth Elevation

Earthquake Activity

City Distance Mag. Time & Date
Minimum magnitude displayed is 2.5.

Coastal Water Temperatures

Place Temperature

Nearby Weather Stations